sensor_id;sensor_type;location;lat;lon;timestamp;temperature;humidity
24148;DHT22;12309;51.450;-2.624;2022-11-20T00:00:50;8.40;99.90
24148;DHT22;12309;51.450;-2.624;2022-11-20T00:03:16;8.30;99.90
24148;DHT22;12309;51.450;-2.624;2022-11-20T00:05:42;8.30;99.90
24148;DHT22;12309;51.450;-2.624;2022-11-20T00:08:08;8.60;99.90
24148;DHT22;12309;51.450;-2.624;2022-11-20T00:10:36;8.30;99.90
24148;DHT22;12309;51.450;-2.624;2022-11-20T00:13:02;8.30;99.90
24148;DHT22;12309;51.450;-2.624;2022-11-20T00:15:28;8.40;99.90
24148;DHT22;12309;51.450;-2.624;2022-11-20T00:17:53;8.50;99.90
24148;DHT22;12309;51.450;-2.624;2022-11-20T00:20:19;8.50;99.90
24148;DHT22;12309;51.450;-2.624;2022-11-20T00:22:45;8.50;99.90
24148;DHT22;12309;51.450;-2.624;2022-11-20T00:25:11;8.50;99.90
24148;DHT22;12309;51.450;-2.624;2022-11-20T00:27:36;8.70;99.90
24148;DHT22;12309;51.450;-2.624;2022-11-20T00:30:03;8.10;99.90
24148;DHT22;12309;51.450;-2.624;2022-11-20T00:32:29;8.30;99.90
24148;DHT22;12309;51.450;-2.624;2022-11-20T00:34:55;8.30;99.90
24148;DHT22;12309;51.450;-2.624;2022-11-20T00:37:20;8.30;99.90
24148;DHT22;12309;51.450;-2.624;2022-11-20T00:39:46;8.00;99.90
24148;DHT22;12309;51.450;-2.624;2022-11-20T00:42:12;8.30;99.90
24148;DHT22;12309;51.450;-2.624;2022-11-20T00:44:37;8.40;99.90
24148;DHT22;12309;51.450;-2.624;2022-11-20T00:47:03;8.40;99.90
24148;DHT22;12309;51.450;-2.624;2022-11-20T00:49:29;8.40;99.90
24148;DHT22;12309;51.450;-2.624;2022-11-20T00:51:54;8.40;99.90
24148;DHT22;12309;51.450;-2.624;2022-11-20T00:54:20;8.40;99.90
24148;DHT22;12309;51.450;-2.624;2022-11-20T00:56:45;8.40;99.90
24148;DHT22;12309;51.450;-2.624;2022-11-20T00:59:11;8.30;99.90
24148;DHT22;12309;51.450;-2.624;2022-11-20T01:04:03;8.30;99.90
24148;DHT22;12309;51.450;-2.624;2022-11-20T01:06:34;8.00;99.90
24148;DHT22;12309;51.450;-2.624;2022-11-20T01:09:04;8.50;99.90
24148;DHT22;12309;51.450;-2.624;2022-11-20T01:11:33;8.10;99.90
24148;DHT22;12309;51.450;-2.624;2022-11-20T01:14:00;8.30;99.90
24148;DHT22;12309;51.450;-2.624;2022-11-20T01:16:47;8.30;99.90
24148;DHT22;12309;51.450;-2.624;2022-11-20T01:19:18;8.10;99.90
24148;DHT22;12309;51.450;-2.624;2022-11-20T01:21:45;8.40;99.90
24148;DHT22;12309;51.450;-2.624;2022-11-20T01:24:14;8.50;99.90
24148;DHT22;12309;51.450;-2.624;2022-11-20T01:26:42;8.50;99.90
24148;DHT22;12309;51.450;-2.624;2022-11-20T01:29:13;8.40;99.90
24148;DHT22;12309;51.450;-2.624;2022-11-20T01:34:14;8.40;99.90
24148;DHT22;12309;51.450;-2.624;2022-11-20T01:36:41;8.40;99.90
24148;DHT22;12309;51.450;-2.624;2022-11-20T01:39:12;8.40;99.90
24148;DHT22;12309;51.450;-2.624;2022-11-20T01:41:38;8.30;99.90
24148;DHT22;12309;51.450;-2.624;2022-11-20T01:47:09;8.50;99.90
24148;DHT22;12309;51.450;-2.624;2022-11-20T01:49:40;8.60;99.90
24148;DHT22;12309;51.450;-2.624;2022-11-20T01:52:16;8.60;99.90
24148;DHT22;12309;51.450;-2.624;2022-11-20T01:57:15;8.40;99.90
24148;DHT22;12309;51.450;-2.624;2022-11-20T01:59:47;8.70;99.90
24148;DHT22;12309;51.450;-2.624;2022-11-20T02:02:14;8.60;99.90
24148;DHT22;12309;51.450;-2.624;2022-11-20T02:04:40;8.70;99.90
24148;DHT22;12309;51.450;-2.624;2022-11-20T02:07:05;8.60;99.90
24148;DHT22;12309;51.450;-2.624;2022-11-20T02:11:58;8.80;99.90
24148;DHT22;12309;51.450;-2.624;2022-11-20T02:14:25;8.60;99.90
24148;DHT22;12309;51.450;-2.624;2022-11-20T02:16:51;8.60;99.90
24148;DHT22;12309;51.450;-2.624;2022-11-20T02:19:31;8.80;99.90
24148;DHT22;12309;51.450;-2.624;2022-11-20T02:24:23;8.60;99.90
24148;DHT22;12309;51.450;-2.624;2022-11-20T02:27:10;8.40;99.90
24148;DHT22;12309;51.450;-2.624;2022-11-20T02:34:45;9.10;99.90
24148;DHT22;12309;51.450;-2.624;2022-11-20T02:37:10;9.00;99.90
24148;DHT22;12309;51.450;-2.624;2022-11-20T02:39:36;9.00;99.90
24148;DHT22;12309;51.450;-2.624;2022-11-20T02:46:57;9.20;99.90
24148;DHT22;12309;51.450;-2.624;2022-11-20T02:49:24;9.00;99.90
24148;DHT22;12309;51.450;-2.624;2022-11-20T02:51:50;8.90;99.90
24148;DHT22;12309;51.450;-2.624;2022-11-20T02:54:15;9.10;99.90
24148;DHT22;12309;51.450;-2.624;2022-11-20T02:56:41;8.80;99.90
24148;DHT22;12309;51.450;-2.624;2022-11-20T02:59:07;9.10;99.90
24148;DHT22;12309;51.450;-2.624;2022-11-20T03:01:32;9.10;99.90
24148;DHT22;12309;51.450;-2.624;2022-11-20T03:03:58;9.20;99.90
24148;DHT22;12309;51.450;-2.624;2022-11-20T03:06:24;9.10;99.90
24148;DHT22;12309;51.450;-2.624;2022-11-20T03:11:16;9.10;99.90
24148;DHT22;12309;51.450;-2.624;2022-11-20T03:13:42;9.50;99.90
24148;DHT22;12309;51.450;-2.624;2022-11-20T03:16:19;9.10;99.90
24148;DHT22;12309;51.450;-2.624;2022-11-20T03:18:45;9.00;99.90
24148;DHT22;12309;51.450;-2.624;2022-11-20T03:21:12;9.10;99.90
24148;DHT22;12309;51.450;-2.624;2022-11-20T03:23:38;9.30;99.90
24148;DHT22;12309;51.450;-2.624;2022-11-20T03:26:09;9.50;99.90
24148;DHT22;12309;51.450;-2.624;2022-11-20T03:28:35;9.40;99.90
24148;DHT22;12309;51.450;-2.624;2022-11-20T03:31:12;9.40;99.90
24148;DHT22;12309;51.450;-2.624;2022-11-20T03:33:39;9.30;99.90
24148;DHT22;12309;51.450;-2.624;2022-11-20T03:36:11;9.10;99.90
24148;DHT22;12309;51.450;-2.624;2022-11-20T03:38:37;9.20;99.90
24148;DHT22;12309;51.450;-2.624;2022-11-20T03:41:09;9.20;99.90
24148;DHT22;12309;51.450;-2.624;2022-11-20T03:43:35;9.10;99.90
24148;DHT22;12309;51.450;-2.624;2022-11-20T03:46:02;9.00;99.90
24148;DHT22;12309;51.450;-2.624;2022-11-20T03:48:28;9.10;99.90
24148;DHT22;12309;51.450;-2.624;2022-11-20T03:51:25;9.10;99.90
24148;DHT22;12309;51.450;-2.624;2022-11-20T03:53:53;9.20;99.90
24148;DHT22;12309;51.450;-2.624;2022-11-20T03:56:24;9.20;99.90
24148;DHT22;12309;51.450;-2.624;2022-11-20T03:58:51;9.20;99.90
24148;DHT22;12309;51.450;-2.624;2022-11-20T04:01:18;9.30;99.90
24148;DHT22;12309;51.450;-2.624;2022-11-20T04:03:45;9.20;99.90
24148;DHT22;12309;51.450;-2.624;2022-11-20T04:06:19;9.20;99.90
24148;DHT22;12309;51.450;-2.624;2022-11-20T04:08:45;9.20;99.90
24148;DHT22;12309;51.450;-2.624;2022-11-20T04:11:20;9.20;99.90
24148;DHT22;12309;51.450;-2.624;2022-11-20T04:13:48;9.10;99.90
24148;DHT22;12309;51.450;-2.624;2022-11-20T04:16:15;9.30;99.90
24148;DHT22;12309;51.450;-2.624;2022-11-20T04:18:41;9.50;99.90
24148;DHT22;12309;51.450;-2.624;2022-11-20T04:21:09;9.10;99.90
24148;DHT22;12309;51.450;-2.624;2022-11-20T04:23:35;9.30;99.90
24148;DHT22;12309;51.450;-2.624;2022-11-20T04:26:09;9.30;99.90
24148;DHT22;12309;51.450;-2.624;2022-11-20T04:31:05;9.10;99.90
24148;DHT22;12309;51.450;-2.624;2022-11-20T04:33:31;9.60;99.90
24148;DHT22;12309;51.450;-2.624;2022-11-20T04:36:04;9.30;99.90
24148;DHT22;12309;51.450;-2.624;2022-11-20T04:38:30;9.20;99.90
24148;DHT22;12309;51.450;-2.624;2022-11-20T04:41:00;9.50;99.90
24148;DHT22;12309;51.450;-2.624;2022-11-20T04:43:26;9.40;99.90
24148;DHT22;12309;51.450;-2.624;2022-11-20T04:45:56;9.50;99.90
24148;DHT22;12309;51.450;-2.624;2022-11-20T04:48:23;9.50;99.90
24148;DHT22;12309;51.450;-2.624;2022-11-20T04:50:49;9.40;99.90
24148;DHT22;12309;51.450;-2.624;2022-11-20T04:53:14;9.40;99.90
24148;DHT22;12309;51.450;-2.624;2022-11-20T04:55:40;9.40;99.90
24148;DHT22;12309;51.450;-2.624;2022-11-20T04:58:06;9.30;99.90
24148;DHT22;12309;51.450;-2.624;2022-11-20T05:00:32;9.30;99.90
24148;DHT22;12309;51.450;-2.624;2022-11-20T05:02:57;9.20;99.90
24148;DHT22;12309;51.450;-2.624;2022-11-20T05:05:23;9.20;99.90
24148;DHT22;12309;51.450;-2.624;2022-11-20T05:07:49;9.10;99.90
24148;DHT22;12309;51.450;-2.624;2022-11-20T05:10:14;9.00;99.90
24148;DHT22;12309;51.450;-2.624;2022-11-20T05:12:40;9.00;99.90
24148;DHT22;12309;51.450;-2.624;2022-11-20T05:15:06;9.00;99.90
24148;DHT22;12309;51.450;-2.624;2022-11-20T05:17:32;8.90;99.90
24148;DHT22;12309;51.450;-2.624;2022-11-20T05:19:57;8.90;99.90
24148;DHT22;12309;51.450;-2.624;2022-11-20T05:22:23;8.80;99.90
24148;DHT22;12309;51.450;-2.624;2022-11-20T05:24:49;8.70;99.90
24148;DHT22;12309;51.450;-2.624;2022-11-20T05:27:14;8.60;99.90
24148;DHT22;12309;51.450;-2.624;2022-11-20T05:29:40;8.60;99.90
24148;DHT22;12309;51.450;-2.624;2022-11-20T05:32:06;8.60;99.90
24148;DHT22;12309;51.450;-2.624;2022-11-20T05:34:34;8.60;99.90
24148;DHT22;12309;51.450;-2.624;2022-11-20T05:36:59;8.60;99.90
24148;DHT22;12309;51.450;-2.624;2022-11-20T05:41:51;9.30;99.90
24148;DHT22;12309;51.450;-2.624;2022-11-20T05:44:36;8.50;99.90
24148;DHT22;12309;51.450;-2.624;2022-11-20T05:47:02;8.50;99.90
24148;DHT22;12309;51.450;-2.624;2022-11-20T05:49:28;8.30;99.90
24148;DHT22;12309;51.450;-2.624;2022-11-20T05:51:53;8.30;99.90
24148;DHT22;12309;51.450;-2.624;2022-11-20T05:54:19;8.30;99.90
24148;DHT22;12309;51.450;-2.624;2022-11-20T05:56:44;8.20;99.90
24148;DHT22;12309;51.450;-2.624;2022-11-20T05:59:10;8.20;99.90
24148;DHT22;12309;51.450;-2.624;2022-11-20T06:01:35;8.10;99.90
24148;DHT22;12309;51.450;-2.624;2022-11-20T06:04:01;8.20;99.90
24148;DHT22;12309;51.450;-2.624;2022-11-20T06:06:27;8.10;99.90
24148;DHT22;12309;51.450;-2.624;2022-11-20T06:08:53;8.00;99.90
24148;DHT22;12309;51.450;-2.624;2022-11-20T06:11:19;8.10;99.90
24148;DHT22;12309;51.450;-2.624;2022-11-20T06:13:45;8.10;99.90
24148;DHT22;12309;51.450;-2.624;2022-11-20T06:16:13;7.80;99.90
24148;DHT22;12309;51.450;-2.624;2022-11-20T06:18:39;7.90;99.90
24148;DHT22;12309;51.450;-2.624;2022-11-20T06:21:07;7.90;99.90
24148;DHT22;12309;51.450;-2.624;2022-11-20T06:23:34;7.90;99.90
24148;DHT22;12309;51.450;-2.624;2022-11-20T06:26:08;7.90;99.90
24148;DHT22;12309;51.450;-2.624;2022-11-20T06:31:01;7.80;99.90
24148;DHT22;12309;51.450;-2.624;2022-11-20T06:33:27;7.50;99.90
24148;DHT22;12309;51.450;-2.624;2022-11-20T06:35:56;7.90;99.90
24148;DHT22;12309;51.450;-2.624;2022-11-20T06:38:24;7.80;99.90
24148;DHT22;12309;51.450;-2.624;2022-11-20T06:40:49;7.60;99.90
24148;DHT22;12309;51.450;-2.624;2022-11-20T06:43:15;7.70;99.90
24148;DHT22;12309;51.450;-2.624;2022-11-20T06:48:06;7.60;99.90
24148;DHT22;12309;51.450;-2.624;2022-11-20T06:50:32;7.50;99.90
24148;DHT22;12309;51.450;-2.624;2022-11-20T06:53:01;7.50;99.90
24148;DHT22;12309;51.450;-2.624;2022-11-20T06:55:27;7.60;99.90
24148;DHT22;12309;51.450;-2.624;2022-11-20T06:57:53;7.80;99.90
24148;DHT22;12309;51.450;-2.624;2022-11-20T07:00:19;7.10;99.90
24148;DHT22;12309;51.450;-2.624;2022-11-20T07:02:44;7.40;99.90
24148;DHT22;12309;51.450;-2.624;2022-11-20T07:05:10;7.40;99.90
24148;DHT22;12309;51.450;-2.624;2022-11-20T07:07:35;7.40;99.90
24148;DHT22;12309;51.450;-2.624;2022-11-20T07:12:27;7.40;99.90
24148;DHT22;12309;51.450;-2.624;2022-11-20T07:14:53;7.20;99.90
24148;DHT22;12309;51.450;-2.624;2022-11-20T07:17:19;7.30;99.90
24148;DHT22;12309;51.450;-2.624;2022-11-20T07:19:44;7.20;99.90
24148;DHT22;12309;51.450;-2.624;2022-11-20T07:22:10;7.00;99.90
24148;DHT22;12309;51.450;-2.624;2022-11-20T07:24:35;7.20;99.90
24148;DHT22;12309;51.450;-2.624;2022-11-20T07:27:01;7.20;99.90
24148;DHT22;12309;51.450;-2.624;2022-11-20T07:34:20;6.90;99.90
24148;DHT22;12309;51.450;-2.624;2022-11-20T07:36:46;7.50;99.90
24148;DHT22;12309;51.450;-2.624;2022-11-20T07:39:12;7.60;99.90
24148;DHT22;12309;51.450;-2.624;2022-11-20T07:41:37;7.60;99.90
24148;DHT22;12309;51.450;-2.624;2022-11-20T07:44:03;7.20;99.90
24148;DHT22;12309;51.450;-2.624;2022-11-20T07:46:29;7.60;99.90
24148;DHT22;12309;51.450;-2.624;2022-11-20T07:48:54;7.60;99.90
24148;DHT22;12309;51.450;-2.624;2022-11-20T07:51:20;7.80;99.90
24148;DHT22;12309;51.450;-2.624;2022-11-20T08:01:07;7.50;99.90
24148;DHT22;12309;51.450;-2.624;2022-11-20T08:03:33;7.40;99.90
24148;DHT22;12309;51.450;-2.624;2022-11-20T08:05:59;7.30;99.90
24148;DHT22;12309;51.450;-2.624;2022-11-20T08:08:28;7.20;99.90
24148;DHT22;12309;51.450;-2.624;2022-11-20T08:10:56;7.60;99.90
24148;DHT22;12309;51.450;-2.624;2022-11-20T08:13:41;7.40;99.90
24148;DHT22;12309;51.450;-2.624;2022-11-20T08:16:25;7.20;99.90
24148;DHT22;12309;51.450;-2.624;2022-11-20T08:18:51;7.30;99.90
24148;DHT22;12309;51.450;-2.624;2022-11-20T08:21:16;7.20;99.90
24148;DHT22;12309;51.450;-2.624;2022-11-20T08:23:42;7.30;99.90
24148;DHT22;12309;51.450;-2.624;2022-11-20T08:26:08;7.30;99.90
24148;DHT22;12309;51.450;-2.624;2022-11-20T08:28:33;7.30;99.90
24148;DHT22;12309;51.450;-2.624;2022-11-20T08:31:00;7.80;99.90
24148;DHT22;12309;51.450;-2.624;2022-11-20T08:33:26;7.50;99.90
24148;DHT22;12309;51.450;-2.624;2022-11-20T08:35:52;7.40;99.90
24148;DHT22;12309;51.450;-2.624;2022-11-20T08:38:17;7.40;99.90
24148;DHT22;12309;51.450;-2.624;2022-11-20T08:40:43;7.50;99.90
24148;DHT22;12309;51.450;-2.624;2022-11-20T08:48:24;8.30;99.90
24148;DHT22;12309;51.450;-2.624;2022-11-20T08:50:50;9.30;99.90
24148;DHT22;12309;51.450;-2.624;2022-11-20T08:53:16;9.20;99.90
24148;DHT22;12309;51.450;-2.624;2022-11-20T08:55:41;9.40;99.90
24148;DHT22;12309;51.450;-2.624;2022-11-20T08:58:07;9.70;99.90
24148;DHT22;12309;51.450;-2.624;2022-11-20T09:00:33;10.30;99.90
24148;DHT22;12309;51.450;-2.624;2022-11-20T09:05:26;11.10;99.90
24148;DHT22;12309;51.450;-2.624;2022-11-20T09:07:55;10.90;99.90
24148;DHT22;12309;51.450;-2.624;2022-11-20T09:12:49;11.10;99.90
24148;DHT22;12309;51.450;-2.624;2022-11-20T09:17:40;11.20;99.90
24148;DHT22;12309;51.450;-2.624;2022-11-20T09:20:06;11.20;99.90
24148;DHT22;12309;51.450;-2.624;2022-11-20T09:22:32;11.10;99.90
24148;DHT22;12309;51.450;-2.624;2022-11-20T09:24:58;10.90;99.90
24148;DHT22;12309;51.450;-2.624;2022-11-20T09:27:23;10.80;99.90
24148;DHT22;12309;51.450;-2.624;2022-11-20T09:29:49;10.70;99.90
24148;DHT22;12309;51.450;-2.624;2022-11-20T09:32:14;10.60;99.90
24148;DHT22;12309;51.450;-2.624;2022-11-20T09:34:40;10.60;99.90
24148;DHT22;12309;51.450;-2.624;2022-11-20T09:37:06;10.70;99.90
24148;DHT22;12309;51.450;-2.624;2022-11-20T09:39:31;11.50;99.90
24148;DHT22;12309;51.450;-2.624;2022-11-20T09:42:02;11.60;99.90
24148;DHT22;12309;51.450;-2.624;2022-11-20T09:55:13;11.50;99.90
24148;DHT22;12309;51.450;-2.624;2022-11-20T09:57:42;11.70;99.90
24148;DHT22;12309;51.450;-2.624;2022-11-20T10:00:11;11.70;99.90
24148;DHT22;12309;51.450;-2.624;2022-11-20T10:02:49;11.60;99.90
24148;DHT22;12309;51.450;-2.624;2022-11-20T10:05:22;11.80;99.90
24148;DHT22;12309;51.450;-2.624;2022-11-20T10:10:47;12.20;99.90
24148;DHT22;12309;51.450;-2.624;2022-11-20T10:16:03;12.50;99.90
24148;DHT22;12309;51.450;-2.624;2022-11-20T10:19:18;12.60;99.90
24148;DHT22;12309;51.450;-2.624;2022-11-20T10:29:45;12.90;99.90
24148;DHT22;12309;51.450;-2.624;2022-11-20T10:32:19;13.30;99.90
24148;DHT22;12309;51.450;-2.624;2022-11-20T10:35:01;14.10;99.90
24148;DHT22;12309;51.450;-2.624;2022-11-20T10:37:31;14.70;99.90
24148;DHT22;12309;51.450;-2.624;2022-11-20T10:42:47;16.50;99.90
24148;DHT22;12309;51.450;-2.624;2022-11-20T10:48:37;17.70;99.90
24148;DHT22;12309;51.450;-2.624;2022-11-20T10:51:03;16.80;99.90
24148;DHT22;12309;51.450;-2.624;2022-11-20T10:56:39;15.80;99.90
24148;DHT22;12309;51.450;-2.624;2022-11-20T11:01:44;17.70;99.90
24148;DHT22;12309;51.450;-2.624;2022-11-20T11:06:47;18.90;99.90
24148;DHT22;12309;51.450;-2.624;2022-11-20T11:09:19;20.30;99.90
24148;DHT22;12309;51.450;-2.624;2022-11-20T11:11:46;20.60;99.90
24148;DHT22;12309;51.450;-2.624;2022-11-20T11:14:14;19.30;99.90
24148;DHT22;12309;51.450;-2.624;2022-11-20T11:16:55;19.60;99.90
24148;DHT22;12309;51.450;-2.624;2022-11-20T11:19:21;19.90;99.90
24148;DHT22;12309;51.450;-2.624;2022-11-20T11:21:54;22.00;99.90
24148;DHT22;12309;51.450;-2.624;2022-11-20T11:24:25;21.90;99.90
24148;DHT22;12309;51.450;-2.624;2022-11-20T11:27:02;23.40;99.90
24148;DHT22;12309;51.450;-2.624;2022-11-20T11:29:30;23.50;99.90
24148;DHT22;12309;51.450;-2.624;2022-11-20T11:32:12;23.80;99.90
24148;DHT22;12309;51.450;-2.624;2022-11-20T11:34:38;24.40;99.90
24148;DHT22;12309;51.450;-2.624;2022-11-20T11:37:05;24.20;99.90
24148;DHT22;12309;51.450;-2.624;2022-11-20T11:39:35;24.40;99.90
24148;DHT22;12309;51.450;-2.624;2022-11-20T11:44:31;20.30;99.90
24148;DHT22;12309;51.450;-2.624;2022-11-20T11:47:29;19.70;99.90
24148;DHT22;12309;51.450;-2.624;2022-11-20T11:55:15;17.60;99.90
24148;DHT22;12309;51.450;-2.624;2022-11-20T12:00:17;14.50;99.90
24148;DHT22;12309;51.450;-2.624;2022-11-20T12:05:34;13.90;99.90
24148;DHT22;12309;51.450;-2.624;2022-11-20T12:08:21;13.10;99.90
24148;DHT22;12309;51.450;-2.624;2022-11-20T12:10:56;13.00;99.90
24148;DHT22;12309;51.450;-2.624;2022-11-20T12:16:14;11.40;99.90
24148;DHT22;12309;51.450;-2.624;2022-11-20T12:18:41;11.20;99.90
24148;DHT22;12309;51.450;-2.624;2022-11-20T12:26:35;10.90;99.90
24148;DHT22;12309;51.450;-2.624;2022-11-20T12:43:27;12.90;99.90
24148;DHT22;12309;51.450;-2.624;2022-11-20T12:46:35;13.40;99.90
24148;DHT22;12309;51.450;-2.624;2022-11-20T12:52:07;12.30;99.90
24148;DHT22;12309;51.450;-2.624;2022-11-20T12:57:21;12.20;99.90
24148;DHT22;12309;51.450;-2.624;2022-11-20T13:00:10;13.90;99.90
24148;DHT22;12309;51.450;-2.624;2022-11-20T13:05:46;13.90;99.90
24148;DHT22;12309;51.450;-2.624;2022-11-20T13:08:23;14.40;99.90
24148;DHT22;12309;51.450;-2.624;2022-11-20T13:13:45;12.60;99.90
24148;DHT22;12309;51.450;-2.624;2022-11-20T13:16:50;15.00;99.90
24148;DHT22;12309;51.450;-2.624;2022-11-20T13:19:18;14.20;99.90
24148;DHT22;12309;51.450;-2.624;2022-11-20T13:21:47;14.40;99.90
24148;DHT22;12309;51.450;-2.624;2022-11-20T13:26:45;14.20;99.90
24148;DHT22;12309;51.450;-2.624;2022-11-20T13:29:16;12.60;99.90
24148;DHT22;12309;51.450;-2.624;2022-11-20T13:31:46;12.60;99.90
24148;DHT22;12309;51.450;-2.624;2022-11-20T13:34:23;11.90;99.90
24148;DHT22;12309;51.450;-2.624;2022-11-20T13:36:51;11.60;99.90
24148;DHT22;12309;51.450;-2.624;2022-11-20T13:41:58;11.10;99.90
24148;DHT22;12309;51.450;-2.624;2022-11-20T13:46:52;10.60;99.90
24148;DHT22;12309;51.450;-2.624;2022-11-20T13:49:33;10.50;99.90
24148;DHT22;12309;51.450;-2.624;2022-11-20T13:54:47;10.30;99.90
24148;DHT22;12309;51.450;-2.624;2022-11-20T14:00:16;10.30;99.90
24148;DHT22;12309;51.450;-2.624;2022-11-20T14:02:43;9.30;99.90
24148;DHT22;12309;51.450;-2.624;2022-11-20T14:05:22;10.30;99.90
24148;DHT22;12309;51.450;-2.624;2022-11-20T14:07:49;10.50;99.90
24148;DHT22;12309;51.450;-2.624;2022-11-20T14:10:42;10.30;99.90
24148;DHT22;12309;51.450;-2.624;2022-11-20T14:13:17;13.30;99.90
24148;DHT22;12309;51.450;-2.624;2022-11-20T14:15:43;11.20;99.90
24148;DHT22;12309;51.450;-2.624;2022-11-20T14:18:20;12.60;99.90
24148;DHT22;12309;51.450;-2.624;2022-11-20T14:20:46;13.00;99.90
24148;DHT22;12309;51.450;-2.624;2022-11-20T14:23:12;13.40;99.90
24148;DHT22;12309;51.450;-2.624;2022-11-20T14:25:42;14.20;99.90
24148;DHT22;12309;51.450;-2.624;2022-11-20T14:28:11;13.80;99.90
24148;DHT22;12309;51.450;-2.624;2022-11-20T14:30:47;14.10;99.90
24148;DHT22;12309;51.450;-2.624;2022-11-20T14:33:14;14.50;99.90
24148;DHT22;12309;51.450;-2.624;2022-11-20T14:35:51;14.90;99.90
24148;DHT22;12309;51.450;-2.624;2022-11-20T14:38:20;14.60;99.90
24148;DHT22;12309;51.450;-2.624;2022-11-20T14:43:30;13.10;99.90
24148;DHT22;12309;51.450;-2.624;2022-11-20T14:45:59;13.10;99.90
24148;DHT22;12309;51.450;-2.624;2022-11-20T14:48:52;12.60;99.90
24148;DHT22;12309;51.450;-2.624;2022-11-20T14:51:31;12.50;99.90
24148;DHT22;12309;51.450;-2.624;2022-11-20T14:54:09;14.10;99.90
24148;DHT22;12309;51.450;-2.624;2022-11-20T14:56:35;12.10;99.90
24148;DHT22;12309;51.450;-2.624;2022-11-20T14:59:01;12.00;99.90
24148;DHT22;12309;51.450;-2.624;2022-11-20T15:01:28;12.10;99.90
24148;DHT22;12309;51.450;-2.624;2022-11-20T15:04:05;12.50;99.90
24148;DHT22;12309;51.450;-2.624;2022-11-20T15:06:30;12.60;99.90
24148;DHT22;12309;51.450;-2.624;2022-11-20T15:11:28;13.20;99.90
24148;DHT22;12309;51.450;-2.624;2022-11-20T15:13:55;13.30;99.90
24148;DHT22;12309;51.450;-2.624;2022-11-20T15:16:22;13.80;99.90
24148;DHT22;12309;51.450;-2.624;2022-11-20T15:18:49;13.80;99.90
24148;DHT22;12309;51.450;-2.624;2022-11-20T15:21:16;14.10;99.90
24148;DHT22;12309;51.450;-2.624;2022-11-20T15:23:43;14.20;99.90
24148;DHT22;12309;51.450;-2.624;2022-11-20T15:26:10;14.40;99.90
24148;DHT22;12309;51.450;-2.624;2022-11-20T15:28:40;14.60;99.90
24148;DHT22;12309;51.450;-2.624;2022-11-20T15:31:09;14.40;99.90
24148;DHT22;12309;51.450;-2.624;2022-11-20T15:33:34;14.40;99.90
24148;DHT22;12309;51.450;-2.624;2022-11-20T15:36:00;14.10;99.90
24148;DHT22;12309;51.450;-2.624;2022-11-20T15:38:26;13.70;99.90
24148;DHT22;12309;51.450;-2.624;2022-11-20T15:40:52;13.20;99.90
24148;DHT22;12309;51.450;-2.624;2022-11-20T15:43:17;13.00;99.90
24148;DHT22;12309;51.450;-2.624;2022-11-20T15:48:38;13.40;99.90
24148;DHT22;12309;51.450;-2.624;2022-11-20T15:53:37;12.50;99.90
24148;DHT22;12309;51.450;-2.624;2022-11-20T15:56:03;12.50;99.90
24148;DHT22;12309;51.450;-2.624;2022-11-20T15:58:30;11.90;99.90
24148;DHT22;12309;51.450;-2.624;2022-11-20T16:00:56;11.50;99.90
24148;DHT22;12309;51.450;-2.624;2022-11-20T16:03:22;11.20;99.90
24148;DHT22;12309;51.450;-2.624;2022-11-20T16:05:47;10.60;99.90
24148;DHT22;12309;51.450;-2.624;2022-11-20T16:08:13;10.70;99.90
24148;DHT22;12309;51.450;-2.624;2022-11-20T16:10:39;10.60;99.90
24148;DHT22;12309;51.450;-2.624;2022-11-20T16:13:12;10.50;99.90
24148;DHT22;12309;51.450;-2.624;2022-11-20T16:15:58;10.50;99.90
24148;DHT22;12309;51.450;-2.624;2022-11-20T16:18:24;10.30;99.90
24148;DHT22;12309;51.450;-2.624;2022-11-20T16:20:52;10.20;99.90
24148;DHT22;12309;51.450;-2.624;2022-11-20T16:23:18;10.60;99.90
24148;DHT22;12309;51.450;-2.624;2022-11-20T16:25:44;10.10;99.90
24148;DHT22;12309;51.450;-2.624;2022-11-20T16:28:10;10.00;99.90
24148;DHT22;12309;51.450;-2.624;2022-11-20T16:30:36;10.10;99.90
24148;DHT22;12309;51.450;-2.624;2022-11-20T16:33:03;10.00;99.90
24148;DHT22;12309;51.450;-2.624;2022-11-20T16:35:30;9.90;99.90
24148;DHT22;12309;51.450;-2.624;2022-11-20T16:37:58;10.00;99.90
24148;DHT22;12309;51.450;-2.624;2022-11-20T16:40:24;9.90;99.90
24148;DHT22;12309;51.450;-2.624;2022-11-20T16:42:50;9.90;99.90
24148;DHT22;12309;51.450;-2.624;2022-11-20T16:45:15;9.80;99.90
24148;DHT22;12309;51.450;-2.624;2022-11-20T16:47:41;9.70;99.90
24148;DHT22;12309;51.450;-2.624;2022-11-20T16:50:07;9.70;99.90
24148;DHT22;12309;51.450;-2.624;2022-11-20T16:52:33;9.60;99.90
24148;DHT22;12309;51.450;-2.624;2022-11-20T16:54:59;9.60;99.90
24148;DHT22;12309;51.450;-2.624;2022-11-20T16:57:27;9.60;99.90
24148;DHT22;12309;51.450;-2.624;2022-11-20T16:59:53;9.40;99.90
24148;DHT22;12309;51.450;-2.624;2022-11-20T17:02:18;9.50;99.90
24148;DHT22;12309;51.450;-2.624;2022-11-20T17:07:10;9.50;99.90
24148;DHT22;12309;51.450;-2.624;2022-11-20T17:09:37;8.50;99.90
24148;DHT22;12309;51.450;-2.624;2022-11-20T17:12:02;9.40;99.90
24148;DHT22;12309;51.450;-2.624;2022-11-20T17:14:28;9.60;99.90
24148;DHT22;12309;51.450;-2.624;2022-11-20T17:16:54;9.40;99.90
24148;DHT22;12309;51.450;-2.624;2022-11-20T17:19:19;9.50;99.90
24148;DHT22;12309;51.450;-2.624;2022-11-20T17:21:45;9.50;99.90
24148;DHT22;12309;51.450;-2.624;2022-11-20T17:24:11;9.40;99.90
24148;DHT22;12309;51.450;-2.624;2022-11-20T17:26:39;9.40;99.90
24148;DHT22;12309;51.450;-2.624;2022-11-20T17:29:10;9.40;99.90
24148;DHT22;12309;51.450;-2.624;2022-11-20T17:31:36;9.70;99.90
24148;DHT22;12309;51.450;-2.624;2022-11-20T17:34:08;9.30;99.90
24148;DHT22;12309;51.450;-2.624;2022-11-20T17:36:35;9.30;99.90
24148;DHT22;12309;51.450;-2.624;2022-11-20T17:39:01;9.20;99.90
24148;DHT22;12309;51.450;-2.624;2022-11-20T17:41:28;9.00;99.90
24148;DHT22;12309;51.450;-2.624;2022-11-20T17:43:56;9.00;99.90
24148;DHT22;12309;51.450;-2.624;2022-11-20T17:46:27;8.80;99.90
24148;DHT22;12309;51.450;-2.624;2022-11-20T17:48:54;9.00;99.90
24148;DHT22;12309;51.450;-2.624;2022-11-20T17:51:22;8.70;99.90
24148;DHT22;12309;51.450;-2.624;2022-11-20T17:53:54;8.70;99.90
24148;DHT22;12309;51.450;-2.624;2022-11-20T17:56:20;8.70;99.90
24148;DHT22;12309;51.450;-2.624;2022-11-20T17:59:05;8.50;99.90
24148;DHT22;12309;51.450;-2.624;2022-11-20T18:01:31;8.50;99.90
24148;DHT22;12309;51.450;-2.624;2022-11-20T18:03:57;8.60;99.90
24148;DHT22;12309;51.450;-2.624;2022-11-20T18:06:24;8.60;99.90
24148;DHT22;12309;51.450;-2.624;2022-11-20T18:08:51;8.70;99.90
24148;DHT22;12309;51.450;-2.624;2022-11-20T18:11:22;8.70;99.90
24148;DHT22;12309;51.450;-2.624;2022-11-20T18:13:50;8.50;99.90
24148;DHT22;12309;51.450;-2.624;2022-11-20T18:16:38;8.70;99.90
24148;DHT22;12309;51.450;-2.624;2022-11-20T18:19:07;8.90;99.90
24148;DHT22;12309;51.450;-2.624;2022-11-20T18:21:33;8.60;99.90
24148;DHT22;12309;51.450;-2.624;2022-11-20T18:26:25;8.30;99.90
24148;DHT22;12309;51.450;-2.624;2022-11-20T18:28:52;8.60;99.90
24148;DHT22;12309;51.450;-2.624;2022-11-20T18:33:44;8.40;99.90
24148;DHT22;12309;51.450;-2.624;2022-11-20T18:36:14;9.50;99.90